createdAt,value
2023-05-01T00:02:01.899Z,1.00
2023-05-01T00:04:28.785Z,1.20
2023-05-01T00:06:55.337Z,1.10
2023-05-01T00:09:21.906Z,1.17
2023-05-01T00:11:48.475Z,1.30
2023-05-01T00:14:15.032Z,1.38
2023-05-01T00:16:41.686Z,1.10
2023-05-01T00:19:08.365Z,1.20
2023-05-01T00:21:35.774Z,1.50
2023-05-01T00:24:07.648Z,1.10
2023-05-01T00:26:34.214Z,1.20
2023-05-01T00:29:00.827Z,1.30
2023-05-01T00:31:27.518Z,1.27
2023-05-01T00:33:57.044Z,1.20
2023-05-01T00:36:23.693Z,1.23
2023-05-01T00:38:51.501Z,1.30
2023-05-01T00:41:26.494Z,1.33
2023-05-01T00:43:53.398Z,1.15
2023-05-01T00:46:20.118Z,1.20
2023-05-01T00:48:47.868Z,1.25
2023-05-01T00:51:23.656Z,1.25
2023-05-01T00:53:53.822Z,0.93
2023-05-01T00:56:21.526Z,1.00
2023-05-01T00:58:56.449Z,1.25
2023-05-01T01:01:23.632Z,1.10
2023-05-01T01:03:54.429Z,1.15
2023-05-01T01:06:39.828Z,1.10
2023-05-01T01:09:30.796Z,0.98
2023-05-01T01:12:25.003Z,1.00
2023-05-01T01:15:09.691Z,1.08
2023-05-01T01:17:45.644Z,1.30
2023-05-01T01:20:47.346Z,1.00
2023-05-01T01:23:42.766Z,1.00
2023-05-01T01:26:33.191Z,1.10
2023-05-01T01:29:15.633Z,1.00
2023-05-01T01:32:03.894Z,1.48
2023-05-01T01:34:35.366Z,1.20
2023-05-01T01:37:21.239Z,1.20
2023-05-01T01:40:07.097Z,1.35
2023-05-01T01:42:55.737Z,1.20
2023-05-01T01:45:25.824Z,1.30
2023-05-01T01:47:54.986Z,0.90
2023-05-01T01:50:25.042Z,1.35
2023-05-01T01:52:54.672Z,1.10
2023-05-01T01:55:42.192Z,1.10
2023-05-01T01:58:09.349Z,1.20
2023-05-01T02:00:42.121Z,1.13
2023-05-01T02:03:09.460Z,1.20
2023-05-01T02:05:36.578Z,0.95
2023-05-01T02:08:07.444Z,1.17
2023-05-01T02:10:35.339Z,1.15
2023-05-01T02:13:01.988Z,1.00
2023-05-01T02:15:29.575Z,1.35
2023-05-01T02:17:59.326Z,1.42
2023-05-01T02:20:31.650Z,1.15
2023-05-01T02:22:58.871Z,1.08
2023-05-01T02:25:29.654Z,1.35
2023-05-01T02:27:57.014Z,1.10
2023-05-01T02:30:23.694Z,1.10
2023-05-01T02:32:50.630Z,1.27
2023-05-01T02:35:17.757Z,1.10
2023-05-01T02:37:47.455Z,1.17
2023-05-01T02:40:15.124Z,1.02
2023-05-01T02:42:44.683Z,1.08
2023-05-01T02:45:19.192Z,1.20
2023-05-01T02:47:48.765Z,1.20
2023-05-01T02:50:15.777Z,1.00
2023-05-01T02:52:43.607Z,1.10
2023-05-01T02:55:13.054Z,1.10
2023-05-01T02:57:41.179Z,1.13
2023-05-01T03:00:09.447Z,1.10
2023-05-01T03:02:36.077Z,1.23
2023-05-01T03:05:04.060Z,1.20
2023-05-01T03:07:35.120Z,1.30
2023-05-01T03:10:06.852Z,1.00
2023-05-01T03:12:33.722Z,1.00
2023-05-01T03:15:00.291Z,1.10
2023-05-01T03:17:29.743Z,0.98
2023-05-01T03:19:56.810Z,1.17
2023-05-01T03:22:23.679Z,1.00
2023-05-01T03:24:50.881Z,1.30
2023-05-01T03:27:17.598Z,1.40
2023-05-01T03:29:44.195Z,1.10
2023-05-01T03:32:11.419Z,1.10
2023-05-01T03:34:38.088Z,1.40
2023-05-01T03:37:04.668Z,1.20
2023-05-01T03:39:31.369Z,1.17
2023-05-01T03:41:59.071Z,1.48
2023-05-01T03:44:25.733Z,1.10
2023-05-01T03:46:54.588Z,1.23
2023-05-01T03:49:21.149Z,1.20
2023-05-01T03:51:47.697Z,1.13
2023-05-01T03:54:14.415Z,1.23
2023-05-01T03:56:40.989Z,1.10
2023-05-01T03:59:07.646Z,1.30
2023-05-01T04:01:34.228Z,1.23
2023-05-01T04:04:04.843Z,1.27
2023-05-01T04:06:31.695Z,1.38
2023-05-01T04:09:01.686Z,1.20
2023-05-01T04:11:28.366Z,1.60
2023-05-01T04:13:54.933Z,1.08
2023-05-01T04:16:23.601Z,1.42
2023-05-01T04:18:50.925Z,1.20
2023-05-01T04:21:21.855Z,1.30
2023-05-01T04:23:48.497Z,1.10
2023-05-01T04:26:16.572Z,1.40
2023-05-01T04:28:45.830Z,1.45
2023-05-01T04:31:12.900Z,1.13
2023-05-01T04:33:42.351Z,1.20
2023-05-01T04:36:11.557Z,1.20
2023-05-01T04:38:38.200Z,1.20
2023-05-01T04:41:07.803Z,1.58
2023-05-01T04:43:34.371Z,1.33
2023-05-01T04:46:01.027Z,1.33
2023-05-01T04:48:27.580Z,1.15
2023-05-01T04:50:55.379Z,1.13
2023-05-01T04:53:21.942Z,1.20
2023-05-01T04:55:48.515Z,1.42
2023-05-01T04:58:15.065Z,1.25
2023-05-01T05:00:41.643Z,1.08
2023-05-01T05:03:09.677Z,1.17
2023-05-01T05:05:36.354Z,1.10
2023-05-01T05:08:03.137Z,1.48
2023-05-01T05:10:29.711Z,1.20
2023-05-01T05:12:59.171Z,1.40
2023-05-01T05:15:25.768Z,1.33
2023-05-01T05:17:53.910Z,1.25
2023-05-01T05:20:26.835Z,1.15
2023-05-01T05:22:53.868Z,1.33
2023-05-01T05:25:20.505Z,1.30
2023-05-01T05:27:47.065Z,1.45
2023-05-01T05:30:13.873Z,1.38
2023-05-01T05:32:40.478Z,1.48
2023-05-01T05:35:07.395Z,1.50
2023-05-01T05:37:39.430Z,1.38
2023-05-01T05:40:06.594Z,1.65
2023-05-01T05:42:34.070Z,1.60
2023-05-01T05:45:00.619Z,1.73
2023-05-01T05:47:27.186Z,1.55
2023-05-01T05:49:56.696Z,1.40
2023-05-01T05:52:26.476Z,1.48
2023-05-01T05:54:53.067Z,1.13
2023-05-01T05:57:19.678Z,1.65
2023-05-01T05:59:49.308Z,1.60
2023-05-01T06:02:16.247Z,1.45
2023-05-01T06:04:43.020Z,1.23
2023-05-01T06:07:09.653Z,1.50
2023-05-01T06:09:37.263Z,1.40
2023-05-01T06:12:05.840Z,1.60
2023-05-01T06:14:35.303Z,1.25
2023-05-01T06:17:01.920Z,1.63
2023-05-01T06:19:28.481Z,1.17
2023-05-01T06:21:55.094Z,1.83
2023-05-01T06:24:21.791Z,1.50
2023-05-01T06:26:48.371Z,1.58
2023-05-01T06:29:15.043Z,1.20
2023-05-01T06:31:41.621Z,1.55
2023-05-01T06:34:08.279Z,1.35
2023-05-01T06:36:34.816Z,1.60
2023-05-01T06:39:01.385Z,1.42
2023-05-01T06:41:28.088Z,1.35
2023-05-01T06:44:07.928Z,1.50
2023-05-01T06:46:39.209Z,1.40
2023-05-01T06:49:06.640Z,1.80
2023-05-01T06:51:33.268Z,1.58
2023-05-01T06:53:59.971Z,1.70
2023-05-01T06:56:28.869Z,1.60
2023-05-01T06:58:55.572Z,1.60
2023-05-01T07:01:22.350Z,1.55
2023-05-01T07:03:49.004Z,1.45
2023-05-01T07:06:15.619Z,1.45
2023-05-01T07:08:42.168Z,1.40
2023-05-01T07:11:08.822Z,1.48
2023-05-01T07:13:35.534Z,1.17
2023-05-01T07:16:02.434Z,1.42
2023-05-01T07:18:33.582Z,1.58
2023-05-01T07:21:06.358Z,1.60
2023-05-01T07:23:32.908Z,2.20
2023-05-01T07:25:59.464Z,2.08
2023-05-01T07:28:26.085Z,2.28
2023-05-01T07:30:52.689Z,2.40
2023-05-01T07:33:19.308Z,2.78
2023-05-01T07:35:46.486Z,2.38
2023-05-01T07:38:18.635Z,2.00
2023-05-01T07:40:45.235Z,2.35
2023-05-01T07:43:12.626Z,2.20
2023-05-01T07:45:39.898Z,2.90
2023-05-01T07:48:06.926Z,2.60
2023-05-01T07:50:33.549Z,2.80
2023-05-01T07:53:00.657Z,2.55
2023-05-01T07:55:29.204Z,2.88
2023-05-01T07:57:58.283Z,2.65
2023-05-01T08:00:24.957Z,3.08
2023-05-01T08:05:33.961Z,2.88
2023-05-01T08:08:00.571Z,2.90
2023-05-01T08:10:30.533Z,3.00
2023-05-01T08:12:57.100Z,2.80
2023-05-01T08:15:24.047Z,2.60
2023-05-01T08:17:53.270Z,2.92
2023-05-01T08:20:19.862Z,2.58
2023-05-01T08:22:51.897Z,2.72
2023-05-01T08:25:21.042Z,3.10
2023-05-01T08:27:49.199Z,2.55
2023-05-01T08:30:20.296Z,2.83
2023-05-01T08:32:47.812Z,2.45
2023-05-01T08:35:14.465Z,2.30
2023-05-01T08:37:41.017Z,2.47
2023-05-01T08:40:10.811Z,2.70
2023-05-01T08:42:39.037Z,2.65
2023-05-01T08:45:12.431Z,2.42
2023-05-01T08:47:40.239Z,3.47
2023-05-01T08:50:11.218Z,3.20
2023-05-01T08:52:40.683Z,2.55
2023-05-01T08:55:08.642Z,2.90
2023-05-01T08:57:36.691Z,2.72
2023-05-01T09:00:05.366Z,3.13
2023-05-01T09:02:35.136Z,2.78
2023-05-01T09:05:04.490Z,2.85
2023-05-01T09:07:31.154Z,2.80
2023-05-01T09:09:58.155Z,2.72
2023-05-01T09:12:26.126Z,3.40
2023-05-01T09:15:02.493Z,2.75
2023-05-01T09:17:36.224Z,2.60
2023-05-01T09:20:07.757Z,2.63
2023-05-01T09:22:40.988Z,2.50
2023-05-01T09:25:07.984Z,3.05
2023-05-01T09:27:37.206Z,2.50
2023-05-01T09:30:08.088Z,2.65
2023-05-01T09:32:37.747Z,2.53
2023-05-01T09:35:18.034Z,2.60
2023-05-01T09:37:49.455Z,2.20
2023-05-01T09:40:16.273Z,2.42
2023-05-01T09:42:53.225Z,2.60
2023-05-01T09:45:20.084Z,2.50
2023-05-01T09:47:47.110Z,2.40
2023-05-01T09:50:32.722Z,2.15
2023-05-01T09:53:05.201Z,2.53
2023-05-01T09:55:32.897Z,2.70
2023-05-01T09:57:59.518Z,2.47
2023-05-01T10:00:26.529Z,2.13
2023-05-01T10:02:54.215Z,2.42
2023-05-01T10:05:21.074Z,2.63
2023-05-01T10:07:58.688Z,2.50
2023-05-01T10:10:25.551Z,2.00
2023-05-01T10:12:52.179Z,2.67
2023-05-01T10:15:27.095Z,2.20
2023-05-01T10:17:54.739Z,2.30
2023-05-01T10:20:22.016Z,1.92
2023-05-01T10:22:49.254Z,2.30
2023-05-01T10:25:17.820Z,1.92
2023-05-01T10:27:44.502Z,2.15
2023-05-01T10:30:12.748Z,2.08
2023-05-01T10:32:43.960Z,2.47
2023-05-01T10:35:16.289Z,2.20
2023-05-01T10:38:01.992Z,2.15
2023-05-01T10:40:40.979Z,2.30
2023-05-01T10:43:28.789Z,2.42
2023-05-01T10:46:17.636Z,2.15
2023-05-01T10:48:44.415Z,2.15
2023-05-01T10:51:15.424Z,2.15
2023-05-01T10:53:42.591Z,1.88
2023-05-01T10:56:38.016Z,1.88
2023-05-01T10:59:05.103Z,2.30
2023-05-01T11:01:31.818Z,2.42
2023-05-01T11:04:00.319Z,2.10
2023-05-01T11:06:27.220Z,2.28
2023-05-01T11:08:54.949Z,2.17
2023-05-01T11:11:21.635Z,2.17
2023-05-01T11:14:07.254Z,1.90
2023-05-01T11:16:39.905Z,2.00
2023-05-01T11:19:11.819Z,1.77
2023-05-01T11:21:41.925Z,2.15
2023-05-01T11:24:09.289Z,2.17
2023-05-01T11:26:42.276Z,2.05
2023-05-01T11:29:13.085Z,1.65
2023-05-01T11:31:39.792Z,2.20
2023-05-01T11:34:09.637Z,2.15
2023-05-01T11:36:49.870Z,1.90
2023-05-01T11:39:19.516Z,1.98
2023-05-01T11:41:46.758Z,2.00
2023-05-01T11:44:16.419Z,2.10
2023-05-01T11:46:43.015Z,1.63
2023-05-01T11:49:09.660Z,2.20
2023-05-01T11:51:36.221Z,2.10
2023-05-01T11:54:10.525Z,1.90
2023-05-01T11:56:37.880Z,1.95
2023-05-01T11:59:18.093Z,2.08
2023-05-01T12:01:46.661Z,1.80
2023-05-01T12:04:22.288Z,1.80
2023-05-01T12:06:49.051Z,1.98
2023-05-01T12:09:26.942Z,1.58
2023-05-01T12:11:54.078Z,2.00
2023-05-01T12:14:24.621Z,1.65
2023-05-01T12:16:51.583Z,1.88
2023-05-01T12:19:18.339Z,2.00
2023-05-01T12:21:48.000Z,1.95
2023-05-01T12:24:16.490Z,1.90
2023-05-01T12:26:44.255Z,1.52
2023-05-01T12:29:11.301Z,1.80
2023-05-01T12:31:46.645Z,2.30
2023-05-01T12:34:13.669Z,1.42
2023-05-01T12:36:40.419Z,1.60
2023-05-01T12:39:12.053Z,1.83
2023-05-01T12:41:41.570Z,1.90
2023-05-01T12:44:22.394Z,1.70
2023-05-01T12:47:08.784Z,2.08
2023-05-01T12:49:38.002Z,1.77
2023-05-01T12:52:06.326Z,1.58
2023-05-01T12:54:37.585Z,2.13
2023-05-01T12:57:09.358Z,1.45
2023-05-01T12:59:39.175Z,1.60
2023-05-01T13:02:07.578Z,1.75
2023-05-01T13:04:35.176Z,1.77
2023-05-01T13:07:02.118Z,1.65
2023-05-01T13:09:32.356Z,1.50
2023-05-01T13:12:07.366Z,1.50
2023-05-01T13:14:43.018Z,1.45
2023-05-01T13:17:10.689Z,1.30
2023-05-01T13:19:40.815Z,2.03
2023-05-01T13:22:09.753Z,1.48
2023-05-01T13:24:49.000Z,1.63
2023-05-01T13:27:15.685Z,1.60
2023-05-01T13:29:58.104Z,1.70
2023-05-01T13:32:28.499Z,1.48
2023-05-01T13:34:57.974Z,1.50
2023-05-01T13:37:24.532Z,1.63
2023-05-01T13:39:51.216Z,1.63
2023-05-01T13:42:26.601Z,1.50
2023-05-01T13:44:55.790Z,1.42
2023-05-01T13:47:26.423Z,1.48
2023-05-01T13:49:53.184Z,1.55
2023-05-01T13:52:24.561Z,1.50
2023-05-01T13:54:55.864Z,1.40
2023-05-01T13:57:25.509Z,1.52
2023-05-01T13:59:53.496Z,1.33
2023-05-01T14:02:21.755Z,1.20
2023-05-01T14:04:53.221Z,1.67
2023-05-01T14:07:24.468Z,1.55
2023-05-01T14:09:55.959Z,1.10
2023-05-01T14:12:32.060Z,1.63
2023-05-01T14:15:00.263Z,1.23
2023-05-01T14:17:31.672Z,1.60
2023-05-01T14:19:58.482Z,1.50
2023-05-01T14:22:29.653Z,1.30
2023-05-01T14:24:56.481Z,1.50
2023-05-01T14:27:23.205Z,1.40
2023-05-01T14:29:50.620Z,1.58
2023-05-01T14:32:17.246Z,1.40
2023-05-01T14:34:43.866Z,1.38
2023-05-01T14:37:10.796Z,1.10
2023-05-01T14:39:39.292Z,1.40
2023-05-01T14:42:08.347Z,1.27
2023-05-01T14:44:39.468Z,1.20
2023-05-01T14:47:09.472Z,1.40
2023-05-01T14:49:36.102Z,1.42
2023-05-01T14:52:02.665Z,1.23
2023-05-01T14:54:30.492Z,1.15
2023-05-01T14:56:57.049Z,1.15
2023-05-01T14:59:24.581Z,1.33
2023-05-01T15:01:51.298Z,1.20
2023-05-01T15:04:18.171Z,1.50
2023-05-01T15:06:44.940Z,1.40
2023-05-01T15:09:11.559Z,1.33
2023-05-01T15:11:38.219Z,1.20
2023-05-01T15:14:04.786Z,1.30
2023-05-01T15:16:32.705Z,1.35
2023-05-01T15:18:59.320Z,1.30
2023-05-01T15:21:25.954Z,1.10
2023-05-01T15:23:52.574Z,1.20
2023-05-01T15:26:19.280Z,1.60
2023-05-01T15:28:45.857Z,1.30
2023-05-01T15:31:12.453Z,1.17
2023-05-01T15:33:39.214Z,1.38
2023-05-01T15:36:05.937Z,1.25
2023-05-01T15:38:32.486Z,1.05
2023-05-01T15:41:00.578Z,1.38
2023-05-01T15:43:27.539Z,1.05
2023-05-01T15:45:57.917Z,1.33
2023-05-01T15:48:25.039Z,1.23
2023-05-01T15:50:51.623Z,1.10
2023-05-01T15:53:18.204Z,1.55
2023-05-01T15:55:44.762Z,1.27
2023-05-01T15:58:11.625Z,1.15
2023-05-01T16:00:39.741Z,1.17
2023-05-01T16:03:07.776Z,1.40
2023-05-01T16:05:36.698Z,1.15
2023-05-01T16:08:03.522Z,1.30
2023-05-01T16:10:36.863Z,1.48
2023-05-01T16:15:32.431Z,1.38
2023-05-01T16:17:59.804Z,1.33
2023-05-01T16:20:31.011Z,1.20
2023-05-01T16:23:00.674Z,1.10
2023-05-01T16:25:28.017Z,1.10
2023-05-01T16:27:54.594Z,1.40
2023-05-01T16:30:24.593Z,1.25
2023-05-01T16:32:51.200Z,1.02
2023-05-01T16:35:18.376Z,1.30
2023-05-01T16:37:44.927Z,1.30
2023-05-01T16:40:16.895Z,1.65
2023-05-01T16:42:53.341Z,1.10
2023-05-01T16:45:20.833Z,1.15
2023-05-01T16:47:47.483Z,1.27
2023-05-01T16:50:14.346Z,1.05
2023-05-01T16:52:40.956Z,1.08
2023-05-01T16:55:07.908Z,1.23
2023-05-01T16:57:35.283Z,1.20
2023-05-01T17:00:02.287Z,1.00
2023-05-01T17:02:29.243Z,1.23
2023-05-01T17:04:55.914Z,1.60
2023-05-01T17:07:23.797Z,1.20
2023-05-01T17:09:50.445Z,1.50
2023-05-01T17:12:17.060Z,1.45
2023-05-01T17:14:43.687Z,1.20
2023-05-01T17:17:10.348Z,1.27
2023-05-01T17:19:38.991Z,1.40
2023-05-01T17:22:07.113Z,1.20
2023-05-01T17:24:35.786Z,1.23
2023-05-01T17:27:03.214Z,1.45
2023-05-01T17:29:30.963Z,1.13
2023-05-01T17:31:57.639Z,1.45
2023-05-01T17:34:24.330Z,1.52
2023-05-01T17:36:51.029Z,1.52
2023-05-01T17:39:18.642Z,1.40
2023-05-01T17:41:45.289Z,1.70
2023-05-01T17:44:14.691Z,1.42
2023-05-01T17:46:44.434Z,1.65
2023-05-01T17:49:11.002Z,1.70
2023-05-01T17:51:37.580Z,1.42
2023-05-01T17:54:04.183Z,1.30
2023-05-01T17:56:30.739Z,1.48
2023-05-01T17:59:00.049Z,1.70
2023-05-01T18:01:26.738Z,1.20
2023-05-01T18:03:54.196Z,1.58
2023-05-01T18:06:23.990Z,1.48
2023-05-01T18:08:50.641Z,1.63
2023-05-01T18:11:17.365Z,1.52
2023-05-01T18:13:47.390Z,1.45
2023-05-01T18:16:15.033Z,1.73
2023-05-01T18:18:44.449Z,1.45
2023-05-01T18:21:11.509Z,1.67
2023-05-01T18:23:41.391Z,1.63
2023-05-01T18:26:08.185Z,1.75
2023-05-01T18:28:34.727Z,1.30
2023-05-01T18:31:01.483Z,1.50
2023-05-01T18:33:28.260Z,1.60
2023-05-01T18:35:55.094Z,1.60
2023-05-01T18:38:21.835Z,1.38
2023-05-01T18:40:48.522Z,1.58
2023-05-01T18:43:15.669Z,1.58
2023-05-01T18:45:42.521Z,1.30
2023-05-01T18:48:09.202Z,1.30
2023-05-01T18:50:35.897Z,1.20
2023-05-01T18:53:02.696Z,1.77
2023-05-01T18:55:29.271Z,1.33
2023-05-01T18:57:56.590Z,1.90
2023-05-01T19:00:23.245Z,1.42
2023-05-01T19:02:53.062Z,1.45
2023-05-01T19:05:21.328Z,1.60
2023-05-01T19:07:48.122Z,1.83
2023-05-01T19:10:14.790Z,2.00
2023-05-01T19:12:42.814Z,1.50
2023-05-01T19:15:09.842Z,2.75
2023-05-01T19:17:39.536Z,2.90
2023-05-01T19:20:07.073Z,3.20
2023-05-01T19:22:37.097Z,2.58
2023-05-01T19:25:04.931Z,2.65
2023-05-01T19:27:31.872Z,2.25
2023-05-01T19:30:08.002Z,2.45
2023-05-01T19:32:34.947Z,2.58
2023-05-01T19:35:01.613Z,2.20
2023-05-01T19:37:28.202Z,2.40
2023-05-01T19:39:54.814Z,2.00
2023-05-01T19:42:21.392Z,2.22
2023-05-01T19:44:56.523Z,1.80
2023-05-01T19:47:23.158Z,1.90
2023-05-01T19:49:50.908Z,2.22
2023-05-01T19:52:17.604Z,2.80
2023-05-01T19:54:47.590Z,2.97
2023-05-01T19:57:14.181Z,2.25
2023-05-01T19:59:43.443Z,2.53
2023-05-01T20:02:10.210Z,2.30
2023-05-01T20:04:39.179Z,2.50
2023-05-01T20:07:06.341Z,2.50
2023-05-01T20:09:32.873Z,2.35
2023-05-01T20:11:59.424Z,2.53
2023-05-01T20:14:33.965Z,2.53
2023-05-01T20:17:03.690Z,2.78
2023-05-01T20:19:31.346Z,2.50
2023-05-01T20:22:01.505Z,2.75
2023-05-01T20:24:28.102Z,2.58
2023-05-01T20:26:55.859Z,2.42
2023-05-01T20:29:22.596Z,2.25
2023-05-01T20:31:51.372Z,2.50
2023-05-01T20:34:25.440Z,2.50
2023-05-01T20:36:58.203Z,2.63
2023-05-01T20:39:27.655Z,2.85
2023-05-01T20:41:54.232Z,2.60
2023-05-01T20:44:20.782Z,2.65
2023-05-01T20:46:50.658Z,2.45
2023-05-01T20:49:17.568Z,2.20
2023-05-01T20:51:44.186Z,2.75
2023-05-01T20:54:11.038Z,2.35
2023-05-01T20:56:47.304Z,2.45
2023-05-01T20:59:16.188Z,2.75
2023-05-01T21:01:42.802Z,3.17
2023-05-01T21:04:09.602Z,2.47
2023-05-01T21:06:37.796Z,2.50
2023-05-01T21:09:05.190Z,2.15
2023-05-01T21:11:36.312Z,3.00
2023-05-01T21:14:02.970Z,2.70
2023-05-01T21:16:29.682Z,2.20
2023-05-01T21:18:56.245Z,2.47
2023-05-01T21:21:31.636Z,2.28
2023-05-01T21:23:58.217Z,2.60
2023-05-01T21:26:24.827Z,2.40
2023-05-01T21:28:51.421Z,2.40
2023-05-01T21:31:18.044Z,2.55
2023-05-01T21:33:47.727Z,2.20
2023-05-01T21:36:17.248Z,2.22
2023-05-01T21:38:43.862Z,2.40
2023-05-01T21:41:17.514Z,2.60
2023-05-01T21:43:45.687Z,2.45
2023-05-01T21:46:17.372Z,2.20
2023-05-01T21:48:51.740Z,2.40
2023-05-01T21:51:18.851Z,2.20
2023-05-01T21:53:47.730Z,2.30
2023-05-01T21:56:17.052Z,2.30
2023-05-01T21:58:43.639Z,2.33
2023-05-01T22:01:13.443Z,2.22
2023-05-01T22:03:41.703Z,2.70
2023-05-01T22:06:08.456Z,2.28
2023-05-01T22:08:35.104Z,2.30
2023-05-01T22:11:02.487Z,2.50
2023-05-01T22:13:33.324Z,2.20
2023-05-01T22:16:07.395Z,2.55
2023-05-01T22:18:36.704Z,2.20
2023-05-01T22:21:07.387Z,2.58
2023-05-01T22:23:35.084Z,2.38
2023-05-01T22:26:04.783Z,2.90
2023-05-01T22:28:33.662Z,2.53
2023-05-01T22:31:04.037Z,2.17
2023-05-01T22:33:30.635Z,2.25
2023-05-01T22:35:57.363Z,2.30
2023-05-01T22:38:26.764Z,2.38
2023-05-01T22:40:53.397Z,2.55
2023-05-01T22:43:24.544Z,2.33
2023-05-01T22:45:51.236Z,2.45
2023-05-01T22:48:17.854Z,2.25
2023-05-01T22:50:44.882Z,2.20
2023-05-01T22:53:11.422Z,2.42
2023-05-01T22:55:41.780Z,2.10
2023-05-01T22:58:09.472Z,2.35
2023-05-01T23:00:56.282Z,2.30
2023-05-01T23:03:28.220Z,2.47
2023-05-01T23:05:55.699Z,2.00
2023-05-01T23:08:22.233Z,2.22
2023-05-01T23:10:54.768Z,2.10
2023-05-01T23:13:23.597Z,2.40
2023-05-01T23:15:53.123Z,2.40
2023-05-01T23:18:34.655Z,2.70
2023-05-01T23:21:09.443Z,1.90
2023-05-01T23:23:37.371Z,2.10
2023-05-01T23:26:03.918Z,2.10
2023-05-01T23:28:30.519Z,2.13
2023-05-01T23:31:01.839Z,2.10
2023-05-01T23:33:39.448Z,1.92
2023-05-01T23:36:12.440Z,2.05
2023-05-01T23:38:40.326Z,2.40
2023-05-01T23:41:12.787Z,2.00
2023-05-01T23:43:39.636Z,2.50
2023-05-01T23:46:07.527Z,2.20
2023-05-01T23:48:34.195Z,1.83
2023-05-01T23:51:01.358Z,2.13
2023-05-01T23:53:30.762Z,1.95
2023-05-01T23:55:57.889Z,2.10
2023-05-01T23:58:24.555Z,2.35
